Home > Products > Valid Products > TAF

000
FTUS46 KSTO 242300
TAFMHR
TAF
KMHR 242337Z 2500/2524 22006KT P6SM SCT250
     FM251000 16011KT P6SM BKN100 BKN250
      TEMPO 2514/2518 P6SM -SHRA BKN030
     FM251800 17016G23KT P6SM BKN050=



000
FTUS46 KSTO 242300
TAFSCK
TAF
KSCK 242337Z 2500/2524 28006KT P6SM SCT250
     FM251100 15010KT P6SM OVC100
      TEMPO 2516/2518 P6SM -SHRA BKN050
     FM251800 19014G21KT P6SM BKN100=



000
FTUS46 KSTO 242300
TAFRDD
TAF
KRDD 242337Z 2500/2524 18006KT P6SM SCT250
     FM251100 18025G33KT P6SM -SHRA BKN050 BKN250
      TEMPO 2512/2516 3SM -RA BKN020=



000
FTUS46 KSTO 242300
TAFRBL
TAF
KRBL 242337Z 2500/2524 17006KT P6SM SCT250
     FM251100 16025G33KT P6SM -RA BKN050 BKN250
      TEMPO 2512/2516 3SM -RA BKN020=



000
FTUS46 KSTO 242300
TAFSMF
TAF
KSMF 242337Z 2500/2524 16008KT P6SM SCT250
     FM251000 17011KT P6SM OVC100
      TEMPO 2514/2518 P6SM -SHRA BKN030
     FM251800 17019G26KT P6SM BKN050=



000
FTUS46 KSTO 242300
TAFSAC
TAF
KSAC 242337Z 2500/2524 18006KT P6SM SCT250
     FM251000 17011KT P6SM OVC100
      TEMPO 2514/2518 P6SM -SHRA BKN030
     FM251800 18013G21KT P6SM BKN050=



000
FTUS46 KSTO 241700
TAFSAC
TAF
KSAC 241735Z 2418/2518 VRB05KT P6SM SKC
     FM241900 18006KT P6SM SKC
     FM250000 22009KT P6SM SCT250
     FM251000 17011KT P6SM OVC100
      TEMPO 2514/2516 P6SM -RA OVC025=



000
FTUS46 KSTO 241700
TAFSMF
TAF
KSMF 241735Z 2418/2518 VRB05KT 2SM BR MIFG FEW250
      TEMPO 2418/2419 1/2SM FG SCT003
     FM241900 18010KT P6SM SCT250
     FM251000 17011KT P6SM OVC100
      TEMPO 2514/2516 P6SM -RA OVC025=



000
FTUS46 KSTO 241700
TAFRBL
TAF
KRBL 241735Z 2418/2518 VRB05KT P6SM SCT250
     FM242100 17011KT P6SM SCT250
     FM251100 16018G25KT P6SM -RA BKN050 BKN250=



000
FTUS46 KSTO 241700
TAFRDD
TAF
KRDD 241735Z 2418/2518 VRB04KT P6SM SCT250
     FM242000 18008KT P6SM SCT250
     FM251100 18015G23KT P6SM -RA BKN050 BKN250=



000
FTUS46 KSTO 241700
TAFSCK
TAF
KSCK 241735Z 2418/2518 30005KT 6SM BR SCT008
      TEMPO 2418/2419 2SM BR BKN006
     FM242000 20006KT P6SM SKC
     FM250100 30009KT P6SM SCT250
     FM251100 15010KT P6SM OVC250=



000
FTUS46 KSTO 241700
TAFMHR
TAF
KMHR 241735Z 2418/2518 VRB05KT P6SM SKC
     FM241900 19006KT P6SM SKC
     FM250000 22008KT P6SM SCT250
     FM251000 14008KT P6SM BKN100 BKN250
      TEMPO 2515/2517 P6SM -RA OVC025=



000
FTUS46 KSTO 241300 AAA
TAFSCK
TAF AMD
KSCK 241317Z 2413/2512 30005KT 6SM BR SCT008
      TEMPO 2413/2417 1SM BR BKN008
     FM241900 20006KT P6SM SKC
     FM250100 30009KT P6SM SCT250
     FM251100 15010KT P6SM OVC250=



000
FTUS46 KSTO 241300 CCA
TAFSMF
TAF COR
KSMF 241307Z 2413/2512 00000KT 2SM BR MIFG FEW250
      TEMPO 2414/2417 1/4SM FG VV001
     FM241800 18010KT P6SM SCT250
     FM251000 17011KT P6SM OVC100=



000
FTUS46 KSTO 241300 AAA
TAFSMF
TAF AMD
KSMF 241306Z 2413/2512 00000KT 1SM BR MIFG FEW250
      TEMPO 2413/2416 1/4SM FG VV001
     FM241700 18010KT P6SM SCT250
     FM251000 17011KT P6SM OVC100=



000
FTUS46 KSTO 241300 CCA
TAFSAC
TAF COR
KSAC 241304Z 2413/2512 00000KT 3SM BR FEW005
      TEMPO 2413/2417 1/4SM FG
     FM241800 18006KT P6SM SKC
     FM250000 22009KT P6SM SCT250
     FM251000 17011KT P6SM OVC100=



000
FTUS46 KSTO 241200 AAA
TAFSAC
TAF AMD
KSAC 241255Z 2413/2512 00000KT P6SM SKC
      TEMPO 2413/2417 1/4SM FG
     FM241900 18006KT P6SM SKC
     FM250000 22009KT P6SM SCT250
     FM251000 17011KT P6SM OVC100=



000
FTUS46 KSTO 241100 RRA
TAFSCK
TAF
KSCK 241146Z 2412/2512 27005KT P6SM SKC
     FM241900 20006KT P6SM SKC
     FM250100 30009KT P6SM SCT250
     FM251100 15010KT P6SM OVC250=



000
FTUS46 KSTO 241100 RRA
TAFMHR
TAF
KMHR 241146Z 2412/2512 VRB05KT P6SM SKC
      TEMPO 2412/2416 2SM BR
     FM241900 19006KT P6SM SKC
     FM250000 22008KT P6SM SCT250
     FM251000 14008KT P6SM BKN100 BKN250=



000
FTUS46 KSTO 241100 RRA
TAFSAC
TAF
KSAC 241146Z 2412/2512 32004KT P6SM SKC
      TEMPO 2412/2416 4SM BR
     FM241900 18006KT P6SM SKC
     FM250000 22009KT P6SM SCT250
     FM251000 17011KT P6SM OVC100=



000
FTUS46 KSTO 241100 RRA
TAFSMF
TAF
KSMF 241146Z 2412/2512 33005KT P6SM FEW250
      TEMPO 2412/2416 3SM BR
     FM241900 18010KT P6SM SCT250
     FM251000 17011KT P6SM OVC100=



000
FTUS46 KSTO 241100 RRA
TAFRBL
TAF
KRBL 241146Z 2412/2512 36005KT P6SM BKN050 BKN250
      TEMPO 2413/2417 4SM BR
     FM241800 17011KT P6SM SCT250
     FM251100 16018G25KT P6SM VCSH BKN050 BKN250 PROB30 2511/2512
      P6SM -RA BKN030=



000
FTUS46 KSTO 241100 RRA
TAFRDD
TAF
KRDD 241146Z 2412/2512 VRB04KT P6SM FEW025 BKN250
      TEMPO 2413/2417 4SM BR BKN025
     FM241800 15010KT P6SM SCT250
     FM250900 18011KT P6SM BKN250
     FM251100 18015G23KT P6SM VCSH BKN050 BKN250 PROB30 2511/2512
      P6SM -RA BKN030=



000
FTUS46 KSTO 241100
TAFRDD
TAF
KRDD 241140Z 2412/2512 VRB04KT P6SM FEW025 BKN250
      TEMPO 2413/2417 4SM BR BKN025
     FM241800 15010KT P6SM SCT250
     FM250900 18011KT P6SM BKN250
     FM251100 18015G23KT P6SM VCSH BKN050 BKN250 PROB30 2511/2512
      P6SM -RA BKN030=



000
FTUS46 KSTO 241100
TAFSMF
TAF
KSMF 241140Z 2412/2512 33005KT P6SM FEW250
     FM241900 18010KT P6SM SCT250
     FM251000 17011KT P6SM OVC100=



000
FTUS46 KSTO 241100
TAFSCK
TAF
KSCK 241140Z 2412/2512 27005KT P6SM SKC
     FM241900 20006KT P6SM SKC
     FM250100 30009KT P6SM SCT250
     FM251100 15010KT P6SM OVC250=



000
FTUS46 KSTO 241100
TAFRBL
TAF
KRBL 241140Z 2412/2512 36005KT P6SM BKN050 BKN250
      TEMPO 2413/2417 4SM BR
     FM241800 17011KT P6SM SCT250
     FM251100 16018G25KT P6SM VCSH BKN050 BKN250 PROB30 2511/2512
      P6SM -RA BKN030=



000
FTUS46 KSTO 241100
TAFSAC
TAF
KSAC 241140Z 2412/2512 32004KT P6SM SKC
     FM241900 18006KT P6SM SKC
     FM250000 22009KT P6SM SCT250
     FM251000 17011KT P6SM OVC100=



000
FTUS46 KSTO 241100
TAFMHR
TAF
KMHR 241140Z 2412/2512 VRB05KT P6SM SKC
     FM241900 19006KT P6SM SKC
     FM250000 22008KT P6SM SCT250
     FM251000 14008KT P6SM BKN100 BKN250=



000
FTUS46 KSTO 241100
TAFSMF
TAF
KSMF 241129Z 2412/2512 33005KT P6SM FEW250
     FM241900 18008KT P6SM SCT250=



000
FTUS46 KSTO 241100
TAFRDD
TAF
KRDD 241129Z 2412/2512 VRB04KT P6SM FEW025
      TEMPO 2412/2416 4SM BR BKN025
     FM241800 15010KT P6SM SCT250=



000
FTUS46 KSTO 241100
TAFMHR
TAF
KMHR 241129Z 2412/2512 VRB05KT P6SM SKC
     FM241900 19006KT P6SM SKC
     FM250000 22008KT P6SM SCT250=



000
FTUS46 KSTO 241100
TAFRBL
TAF
KRBL 241129Z 2412/2512 36005KT P6SM BKN050 OVC100
      TEMPO 2412/2416 4SM BR
     FM241800 17011KT P6SM SCT250=



000
FTUS46 KSTO 241100
TAFSCK
TAF
KSCK 241129Z 2412/2512 27005KT P6SM SKC
     FM241900 15006KT P6SM SKC
     FM250100 30009KT P6SM SCT250=



000
FTUS46 KSTO 241100
TAFSAC
TAF
KSAC 241129Z 2412/2512 32004KT P6SM SKC
     FM241900 18006KT P6SM SKC
     FM250000 22011KT P6SM SCT250=



000
FTUS46 KSTO 240500
TAFSCK
TAF
KSCK 240538Z 2406/2506 27005KT P6SM SKC
     FM241900 15006KT P6SM SKC
     FM250100 30009KT P6SM SCT250=



000
FTUS46 KSTO 240500
TAFRDD
TAF
KRDD 240538Z 2406/2506 VRB04KT P6SM VCSH OVC070
     FM241000 VRB04KT P6SM SCT025 OVC100
      TEMPO 2410/2414 4SM BR BKN025
     FM241800 15010KT P6SM SCT250=



000
FTUS46 KSTO 240500
TAFRBL
TAF
KRBL 240538Z 2406/2506 33005KT P6SM BKN050 OVC100
      TEMPO 2410/2414 4SM BR
     FM241800 17011KT P6SM SCT250=



000
FTUS46 KSTO 240500
TAFSAC
TAF
KSAC 240538Z 2406/2506 32004KT P6SM SKC
     FM241900 18006KT P6SM SKC
     FM250000 22011KT P6SM SCT250=



000
FTUS46 KSTO 240500
TAFMHR
TAF
KMHR 240538Z 2406/2506 VRB05KT P6SM SKC
     FM241900 19006KT P6SM SKC
     FM250000 22008KT P6SM SCT250
      AMD NOT SKED=



000
FTUS46 KSTO 240500
TAFSMF
TAF
KSMF 240538Z 2406/2506 33005KT P6SM FEW250
     FM241900 18008KT P6SM SCT250=



000
FTUS46 KSTO 240200 AAA
TAFRDD
TAF AMD
KRDD 240210Z 2402/2424 VRB04KT P6SM VCSH OVC070
     FM240900 VRB04KT P6SM VCSH BKN050 OVC150
     FM241800 18010KT P6SM FEW200=



000
FTUS46 KSTO 240200 AAA
TAFRDD
TAF AMD
KRDD 240210Z 2402/2424 VRB04KT P6SM VCSH OVC070
     FM240900 VRB04KT P6SM VCSH BKN050 OVC150
     FM241800 18010KT P6SM FEW200=



000
FTUS46 KSTO 232300
TAFMHR
TAF
KMHR 232321Z 2400/2424 VRB05KT P6SM BKN200
     FM241900 19010KT P6SM FEW250=



000
FTUS46 KSTO 232300
TAFSCK
TAF
KSCK 232321Z 2400/2424 30005KT P6SM FEW200
     FM241900 18008KT P6SM SKC=



000
FTUS46 KSTO 232300
TAFRBL
TAF
KRBL 232321Z 2400/2424 VRB06KT 6SM -RA SCT040 BKN060 OVC080
     FM240700 VRB05KT P6SM VCSH BKN100
     FM241400 18006KT P6SM SCT250
     FM241800 17011KT P6SM FEW250=



000
FTUS46 KSTO 232300
TAFSMF
TAF
KSMF 232321Z 2400/2424 VRB05KT P6SM BKN200
     FM241800 18011KT P6SM FEW250=



000
FTUS46 KSTO 232300
TAFRDD
TAF
KRDD 232321Z 2400/2424 VRB05KT 4SM -RA BR BKN010 BKN030 OVC070
     FM240900 VRB04KT P6SM VCSH BKN050 OVC150
     FM241800 18010KT P6SM FEW200=



000
FTUS46 KSTO 232300
TAFSAC
TAF
KSAC 232321Z 2400/2424 VRB05KT P6SM BKN200
     FM241800 19009KT P6SM FEW250=



000
FTUS46 KSTO 231800 AAA
TAFRDD
TAF AMD
KRDD 231822Z 2318/2418 33005KT P6SM -RA FEW008 BKN050 OVC090
      TEMPO 2318/2321 4SM -RA OVC025
     FM232200 30004KT 5SM -RA BR OVC025
     FM240100 VRB05KT P6SM -RA BKN035 OVC050
     FM240500 VRB04KT P6SM VCSH OVC050 PROB30 2406/2407 P6SM -RA
     FM241200 VRB04KT P6SM BKN100 PROB30 2412/2413 4SM -RA OVC050
     FM241500 VRB04KT P6SM BKN250=



000
FTUS46 KSTO 231800 AAA
TAFRDD
TAF AMD
KRDD 231822Z 2318/2418 33005KT P6SM -RA FEW008 BKN050 OVC090
      TEMPO 2318/2321 4SM -RA OVC025
     FM232200 30004KT 5SM -RA BR OVC025
     FM240100 VRB05KT P6SM -RA BKN035 OVC050
     FM240500 VRB04KT P6SM VCSH OVC050 PROB30 2406/2407 P6SM -RA
     FM241200 VRB04KT P6SM BKN100 PROB30 2412/2413 4SM -RA OVC050
     FM241500 VRB04KT P6SM BKN250=



000
FTUS46 KSTO 231739
TAFSCK
TAF
KSCK 231739Z 2318/2418 29008KT P6SM OVC200
     FM232200 VRB05KT P6SM BKN200=



000
FTUS46 KSTO 231739
TAFSMF
TAF
KSMF 231739Z 2318/2418 17006KT P6SM FEW050 SCT100 OVC150
     FM232200 VRB05KT P6SM OVC200=



000
FTUS46 KSTO 231739
TAFSAC
TAF
KSAC 231739Z 2318/2418 23005KT P6SM SCT100 OVC150
     FM232200 VRB05KT P6SM OVC200=



000
FTUS46 KSTO 231739
TAFMHR
TAF
KMHR 231739Z 2318/2418 17004KT P6SM SCT100 BKN150
     FM232200 VRB05KT P6SM OVC200=



000
FTUS46 KSTO 231739
TAFRBL
TAF
KRBL 231739Z 2318/2418 36010KT P6SM -RA OVC080
      TEMPO 2319/2323 4SM -RA OVC030
     FM232300 18007KT 5SM -RA OVC030
     FM240500 VRB03KT P6SM VCSH OVC060 PROB30 2406/2407 6SM -RA
      OVC100
     FM241200 19004KT P6SM BKN100
     FM241400 20005KT P6SM BKN250=



000
FTUS46 KSTO 231739
TAFRDD
TAF
KRDD 231739Z 2318/2418 33005KT P6SM -RA OVC080
      TEMPO 2318/2321 4SM -RA OVC025
     FM232200 30004KT 5SM -RA BR OVC025
     FM240100 VRB05KT P6SM -RA BKN035 OVC050
     FM240500 VRB04KT P6SM VCSH OVC050 PROB30 2406/2407 P6SM -RA
     FM241200 VRB04KT P6SM BKN100 PROB30 2412/2413 4SM -RA OVC050
     FM241500 VRB04KT P6SM BKN250=



000
FTUS46 KSTO 231739
TAFMHR
TAF
KMHR 231739Z 2318/2418 17004KT P6SM SCT100 BKN150
     FM232200 VRB05KT P6SM OVC200=



000
FTUS46 KSTO 231739
TAFSMF
TAF
KSMF 231739Z 2318/2418 17006KT P6SM FEW050 SCT100 OVC150
     FM232200 VRB05KT P6SM OVC200=



000
FTUS46 KSTO 231739
TAFRBL
TAF
KRBL 231739Z 2318/2418 36010KT P6SM -RA OVC080
      TEMPO 2319/2323 4SM -RA OVC030
     FM232300 18007KT 5SM -RA OVC030
     FM240500 VRB03KT P6SM VCSH OVC060 PROB30 2406/2407 6SM -RA
      OVC100
     FM241200 19004KT P6SM BKN100
     FM241400 20005KT P6SM BKN250=



000
FTUS46 KSTO 231739
TAFRDD
TAF
KRDD 231739Z 2318/2418 33005KT P6SM -RA OVC080
      TEMPO 2318/2321 4SM -RA OVC025
     FM232200 30004KT 5SM -RA BR OVC025
     FM240100 VRB05KT P6SM -RA BKN035 OVC050
     FM240500 VRB04KT P6SM VCSH OVC050 PROB30 2406/2407 P6SM -RA
     FM241200 VRB04KT P6SM BKN100 PROB30 2412/2413 4SM -RA OVC050
     FM241500 VRB04KT P6SM BKN250=



000
FTUS46 KSTO 231739
TAFSCK
TAF
KSCK 231739Z 2318/2418 29008KT P6SM OVC200
     FM232200 VRB05KT P6SM BKN200=



000
FTUS46 KSTO 231739
TAFSAC
TAF
KSAC 231739Z 2318/2418 23005KT P6SM SCT100 OVC150
     FM232200 VRB05KT P6SM OVC200=



000
FTUS46 KSTO 231100
TAFSAC
TAF
KSAC 231127Z 2312/2412 VRB05KT P6SM BKN200
     FM231500 23005KT P6SM SCT100 OVC150
     FM232200 VRB05KT P6SM OVC200=



000
FTUS46 KSTO 231100
TAFSMF
TAF
KSMF 231127Z 2312/2412 16005KT P6SM BKN200
     FM231800 17006KT P6SM FEW050 SCT100 OVC150
     FM232200 VRB05KT P6SM OVC200=



000
FTUS46 KSTO 231100
TAFRDD
TAF
KRDD 231127Z 2312/2412 33005KT 6SM -RA SCT050 OVC080
      TEMPO 2317/2321 4SM -RA OVC025
     FM232200 30004KT 5SM -RA BR OVC025
     FM240100 VRB05KT P6SM -RA BKN035 OVC050
     FM240500 VRB04KT P6SM VCSH OVC050=



000
FTUS46 KSTO 231100
TAFMHR
TAF
KMHR 231127Z 2312/2412 12005KT P6SM SCT150
     FM231800 17004KT P6SM SCT100 OVC150
     FM232200 VRB05KT P6SM OVC200=



000
FTUS46 KSTO 231100
TAFSCK
TAF
KSCK 231127Z 2312/2412 VRB05KT P6SM BKN250
     FM231900 29008KT P6SM OVC200
     FM232200 VRB05KT P6SM BKN200=



000
FTUS46 KSTO 231100
TAFRBL
TAF
KRBL 231127Z 2312/2412 36010KT P6SM -RA OVC080
      TEMPO 2319/2323 4SM -RA OVC030
     FM232300 18007KT 5SM -RA OVC030
     FM240500 VRB05KT P6SM VCSH OVC060=



000
FTUS46 KSTO 230500
TAFMHR
TAF
KMHR 230531Z 2306/2406 VRB05KT P6SM BKN200
     FM231800 17004KT P6SM SCT100 OVC150=



000
FTUS46 KSTO 230500
TAFSMF
TAF
KSMF 230531Z 2306/2406 16005KT P6SM BKN200
     FM231800 17006KT P6SM SCT100 OVC150=



000
FTUS46 KSTO 230500
TAFSCK
TAF
KSCK 230531Z 2306/2406 VRB05KT P6SM BKN250
     FM231900 30008KT P6SM BKN200=



000
FTUS46 KSTO 230500
TAFSAC
TAF
KSAC 230531Z 2306/2406 VRB05KT P6SM BKN200
     FM231800 23005KT P6SM SCT100 OVC150=



000
FTUS46 KSTO 230500
TAFRDD
TAF
KRDD 230531Z 2306/2406 VRB05KT P6SM VCSH OVC090
     FM231200 18005KT P6SM -RA OVC050
     FM232200 19006KT P6SM -RA OVC050=



000
FTUS46 KSTO 230500
TAFRBL
TAF
KRBL 230531Z 2306/2406 VRB05KT P6SM OVC150
     FM231200 17006KT P6SM -RA OVC060
     FM232200 16007KT P6SM -RA OVC050
     FM240400 VRB05KT P6SM VCSH OVC060=



000
FTUS46 KSTO 222300
TAFSMF
TAF
KSMF 222333Z 2300/2324 VRB05KT P6SM BKN200
     FM231600 16006KT P6SM OVC150=



000
FTUS46 KSTO 222300
TAFRBL
TAF
KRBL 222333Z 2300/2324 VRB05KT P6SM OVC150
     FM231800 15010KT P6SM VCSH OVC100
     FM232200 17007KT 6SM -RA OVC050=



000
FTUS46 KSTO 222300
TAFSAC
TAF
KSAC 222333Z 2300/2324 VRB05KT P6SM BKN200
     FM231600 20006KT P6SM OVC150=



000
FTUS46 KSTO 222300
TAFSCK
TAF
KSCK 222333Z 2300/2324 31006KT P6SM BKN250
     FM230600 26006KT P6SM BKN200
     FM231800 30008KT P6SM BKN200=



000
FTUS46 KSTO 222300
TAFMHR
TAF
KMHR 222333Z 2300/2324 VRB05KT P6SM BKN200
     FM231600 17004KT P6SM OVC150
      AMD NOT SKED=



000
FTUS46 KSTO 222300
TAFRDD
TAF
KRDD 222333Z 2300/2324 VRB05KT P6SM OVC120
     FM231200 VRB05KT P6SM VCSH OVC100
     FM231900 16008KT 6SM -RA OVC050=



000
FTUS46 KSTO 221700
TAFRBL
TAF
KRBL 221733Z 2218/2318 33005KT P6SM BKN250
     FM222100 17007KT P6SM SCT120 BKN200
     FM230800 18005KT P6SM OVC100 PROB30 2308/2312 6SM -RA OVC050
     FM231200 17007KT 6SM -RA OVC050=



000
FTUS46 KSTO 221700
TAFSAC
TAF
KSAC 221733Z 2218/2318 VRB05KT P6SM BKN250
     FM230200 23006KT P6SM BKN150 OVC200=



000
FTUS46 KSTO 221700
TAFSMF
TAF
KSMF 221733Z 2218/2318 VRB05KT P6SM BKN250
     FM230200 18006KT P6SM BKN120 OVC200=



000
FTUS46 KSTO 221700
TAFRDD
TAF
KRDD 221733Z 2218/2318 32004KT P6SM BKN200
     FM222300 18006KT P6SM BKN120 BKN200
     FM230600 18003KT P6SM OVC100 PROB30 2306/2312 6SM -RA OVC050
     FM231200 18003KT 6SM -RA OVC050=



000
FTUS46 KSTO 221700
TAFSAC
TAF
KSAC 221733Z 2218/2318 VRB05KT P6SM BKN250
     FM230200 23006KT P6SM BKN150 OVC200=



000
FTUS46 KSTO 221700
TAFSCK
TAF
KSCK 221733Z 2218/2318 28006KT P6SM FEW250
     FM222100 31007KT P6SM SCT200=



000
FTUS46 KSTO 221700
TAFRBL
TAF
KRBL 221733Z 2218/2318 33005KT P6SM BKN250
     FM222100 17007KT P6SM SCT120 BKN200
     FM230800 18005KT P6SM OVC100 PROB30 2308/2312 6SM -RA OVC050
     FM231200 17007KT 6SM -RA OVC050=



000
FTUS46 KSTO 221700
TAFSMF
TAF
KSMF 221733Z 2218/2318 VRB05KT P6SM BKN250
     FM230200 18006KT P6SM BKN120 OVC200=



000
FTUS46 KSTO 221700
TAFRDD
TAF
KRDD 221733Z 2218/2318 32004KT P6SM BKN200
     FM222300 18006KT P6SM BKN120 BKN200
     FM230600 18003KT P6SM OVC100 PROB30 2306/2312 6SM -RA OVC050
     FM231200 18003KT 6SM -RA OVC050=



000
FTUS46 KSTO 221700
TAFMHR
TAF
KMHR 221733Z 2218/2318 VRB05KT P6SM BKN250
     FM230200 21005KT P6SM BKN150 OVC200=



000
FTUS46 KSTO 221700
TAFMHR
TAF
KMHR 221733Z 2218/2318 VRB05KT P6SM BKN250
     FM230200 21005KT P6SM BKN150 OVC200=



000
FTUS46 KSTO 221700
TAFSCK
TAF
KSCK 221733Z 2218/2318 28006KT P6SM FEW250
     FM222100 31007KT P6SM SCT200=



000
FTUS46 KSTO 221100
TAFMHR
TAF
KMHR 221137Z 2212/2312 VRB05KT P6SM BKN250
     FM230200 21005KT P6SM BKN150 OVC200=



000
FTUS46 KSTO 221100
TAFRDD
TAF
KRDD 221137Z 2212/2312 32005KT P6SM BKN200
     FM222300 17007KT P6SM BKN120 BKN200
     FM230600 18003KT P6SM OVC100 PROB30 2306/2312 6SM -RA OVC050=



000
FTUS46 KSTO 221100
TAFSMF
TAF
KSMF 221137Z 2212/2312 VRB05KT P6SM BKN250
     FM230200 19006KT P6SM BKN120 OVC200=



000
FTUS46 KSTO 221100
TAFRBL
TAF
KRBL 221137Z 2212/2312 33005KT P6SM BKN250
     FM222100 16007KT P6SM SCT120 BKN200
     FM230800 18003KT P6SM OVC100 PROB30 2308/2312 6SM -RA OVC050=



000
FTUS46 KSTO 221100
TAFSAC
TAF
KSAC 221137Z 2212/2312 VRB05KT P6SM BKN250
     FM230200 23006KT P6SM BKN150 OVC200=



000
FTUS46 KSTO 221100
TAFSCK
TAF
KSCK 221137Z 2212/2312 28006KT P6SM FEW250
     FM222100 31008KT P6SM SCT250=



000
FTUS46 KSTO 221100
TAFSAC
TAF
KSAC 221128Z 2212/2312 VRB05KT P6SM BKN250=



000
FTUS46 KSTO 221100
TAFRBL
TAF
KRBL 221128Z 2212/2312 33005KT P6SM BKN250
     FM222100 16007KT P6SM BKN200
     FM230800 18003KT P6SM OVC100 PROB30 2308/2312 6SM -RA OVC050=



000
FTUS46 KSTO 221100
TAFSMF
TAF
KSMF 221128Z 2212/2312 VRB05KT P6SM BKN250=



000
FTUS46 KSTO 221100
TAFSCK
TAF
KSCK 221128Z 2212/2312 28006KT P6SM FEW250
     FM222100 31008KT P6SM SCT250=



000
FTUS46 KSTO 221100
TAFRDD
TAF
KRDD 221128Z 2212/2312 VRB05KT P6SM BKN200
     FM222300 17007KT P6SM BKN200
     FM230600 18003KT P6SM OVC100 PROB30 2306/2312 6SM -RA OVC050=



000
FTUS46 KSTO 221100
TAFMHR
TAF
KMHR 221128Z 2212/2312 VRB05KT P6SM BKN250=



000
FTUS46 KSTO 220500
TAFSAC
TAF
KSAC 220520Z 2206/2306 VRB05KT P6SM BKN250=



000
FTUS46 KSTO 220500
TAFMHR
TAF
KMHR 220520Z 2206/2306 VRB05KT P6SM BKN250=



000
FTUS46 KSTO 220500
TAFRBL
TAF
KRBL 220520Z 2206/2306 33005KT P6SM BKN250
     FM222100 16007KT P6SM BKN200=



000
FTUS46 KSTO 220500
TAFSCK
TAF
KSCK 220520Z 2206/2306 28006KT P6SM FEW250
     FM222100 31008KT P6SM SCT250=



000
FTUS46 KSTO 220500
TAFRDD
TAF
KRDD 220520Z 2206/2306 VRB05KT P6SM BKN200
     FM222300 17007KT P6SM BKN200=



000
FTUS46 KSTO 220500
TAFSMF
TAF
KSMF 220520Z 2206/2306 VRB05KT P6SM BKN250=



000
FTUS46 KSTO 220500
TAFSAC
TAF
KSAC 220520Z 2206/2306 VRB05KT P6SM BKN250=



000
FTUS46 KSTO 220500
TAFRDD
TAF
KRDD 220520Z 2206/2306 VRB05KT P6SM BKN200
     FM222300 17007KT P6SM BKN200=



000
FTUS46 KSTO 220500
TAFSCK
TAF
KSCK 220520Z 2206/2306 28006KT P6SM FEW250
     FM222100 31008KT P6SM SCT250=



000
FTUS46 KSTO 220500
TAFMHR
TAF
KMHR 220520Z 2206/2306 VRB05KT P6SM BKN250=



000
FTUS46 KSTO 220500
TAFSMF
TAF
KSMF 220520Z 2206/2306 VRB05KT P6SM BKN250=



000
FTUS46 KSTO 220500
TAFRBL
TAF
KRBL 220520Z 2206/2306 33005KT P6SM BKN250
     FM222100 16007KT P6SM BKN200=



    US Dept of Commerce
    National Oceanic and Atmospheric Administration
    National Weather Service
    1325 East West Highway
    Silver Spring, MD 20910
    Page Author: NWS Internet Services Team
Disclaimer
Information Quality
Credits
Glossary
Privacy Policy
Freedom of Information Act (FOIA)
About Us
Career Opportunities